Time;durP1;ratioP1;P1;durP2;ratioP2;P2;SDS_P1;SDS_P2;PMS_P1;PMS_P2;Temp;Humidity;BMP_temperature;BMP_pressure;BME280_temperature;BME280_humidity;BME280_pressure;Samples;Min_cycle;Max_cycle;Signal;HPM_P1;HPM_P2
2020/12/25 00:01:26;;;;;;;3.85;3.02;;;;;;;3.17;82.90;99435.33;2077588;84;21171;-69
2020/12/25 00:04:28;;;;;;;5.00;2.40;;;;;;;3.19;82.91;99440.45;2080797;84;21298;-68
2020/12/25 00:07:29;;;;;;;5.12;3.25;;;;;;;3.20;82.85;99441.61;2083758;84;21109;-74
2020/12/25 00:10:31;;;;;;;3.02;2.40;;;;;;;3.21;82.90;99445.91;2078772;83;21136;-69
2020/12/25 00:13:33;;;;;;;4.67;2.70;;;;;;;3.23;82.89;99447.06;2084828;83;21163;-69
2020/12/25 00:16:36;;;;;;;5.42;3.10;;;;;;;3.22;82.86;99442.80;2075356;84;21112;-68
2020/12/25 00:19:38;;;;;;;4.08;2.35;;;;;;;3.21;82.85;99444.59;2083868;84;21128;-68
2020/12/25 00:22:39;;;;;;;5.10;2.70;;;;;;;3.20;82.76;99447.34;2084576;84;21172;-68
2020/12/25 00:25:41;;;;;;;4.37;2.47;;;;;;;3.20;82.76;99453.89;2076683;84;21519;-68
2020/12/25 00:28:43;;;;;;;6.15;2.83;;;;;;;3.22;82.84;99466.39;2083268;83;21156;-68
2020/12/25 00:31:45;;;;;;;6.35;3.70;;;;;;;3.24;82.80;99471.84;2080290;84;21242;-69
2020/12/25 00:34:47;;;;;;;6.50;4.00;;;;;;;3.23;82.79;99467.55;2079923;83;21203;-68
2020/12/25 00:37:49;;;;;;;5.95;3.52;;;;;;;3.23;82.80;99478.03;2079970;84;21169;-68
2020/12/25 00:40:50;;;;;;;5.83;3.08;;;;;;;3.23;82.84;99474.59;2077776;84;21190;-68
2020/12/25 00:43:54;;;;;;;4.22;2.75;;;;;;;3.24;82.83;99486.27;2069142;84;21121;-68
2020/12/25 00:46:55;;;;;;;6.40;3.20;;;;;;;3.25;82.78;99486.61;2060097;84;21177;-68
2020/12/25 00:50:02;;;;;;;3.75;2.70;;;;;;;3.25;82.79;99492.34;2067281;84;21129;-68
2020/12/25 00:53:04;;;;;;;5.95;3.60;;;;;;;3.25;82.81;99498.41;2069260;84;21216;-69
2020/12/25 00:56:05;;;;;;;6.97;4.10;;;;;;;3.24;82.85;99508.55;2063443;84;21192;-68
2020/12/25 00:59:16;;;;;;;7.28;4.10;;;;;;;3.25;82.94;99527.73;2068331;84;21207;-68
2020/12/25 01:02:18;;;;;;;6.97;3.95;;;;;;;3.23;82.93;99522.61;2065990;84;21213;-70
2020/12/25 01:05:20;;;;;;;5.10;3.45;;;;;;;3.21;82.99;99532.88;2064779;84;21093;-68
2020/12/25 01:08:21;;;;;;;4.12;3.17;;;;;;;3.20;83.09;99535.99;2066242;84;21199;-69
2020/12/25 01:11:27;;;;;;;6.22;3.42;;;;;;;3.20;83.10;99532.55;2068306;84;21132;-68
2020/12/25 01:14:33;;;;;;;7.17;4.42;;;;;;;3.24;83.14;99541.33;2063622;84;21093;-70
2020/12/25 01:17:35;;;;;;;8.30;4.10;;;;;;;3.27;83.15;99542.38;2066495;84;21149;-68
2020/12/25 01:20:38;;;;;;;7.92;4.92;;;;;;;3.25;83.11;99544.30;2058347;84;21184;-68
2020/12/25 01:23:41;;;;;;;5.12;3.62;;;;;;;3.23;83.12;99551.45;2064619;84;21161;-72
2020/12/25 01:26:45;;;;;;;6.05;3.52;;;;;;;3.21;83.08;99555.16;2066219;85;21239;-68
2020/12/25 01:29:47;;;;;;;7.50;3.30;;;;;;;3.20;83.10;99550.41;2043118;85;21193;-68
2020/12/25 01:32:49;;;;;;;4.17;3.00;;;;;;;3.21;83.09;99558.64;2064467;84;21491;-68
2020/12/25 01:35:51;;;;;;;3.98;2.98;;;;;;;3.24;83.05;99562.31;2059415;84;21201;-75
2020/12/25 01:38:53;;;;;;;4.12;2.92;;;;;;;3.24;82.89;99565.39;2073702;84;21604;-69
2020/12/25 01:41:54;;;;;;;6.17;3.12;;;;;;;3.25;82.81;99559.20;2067918;84;21601;-68
2020/12/25 01:44:56;;;;;;;5.12;2.80;;;;;;;3.23;82.61;99563.73;2074241;83;21208;-74
2020/12/25 01:48:01;;;;;;;3.50;3.02;;;;;;;3.20;82.62;99566.14;2076742;83;21173;-68
2020/12/25 01:51:06;;;;;;;5.87;3.62;;;;;;;3.19;82.62;99561.05;2076711;84;21111;-74
2020/12/25 01:54:08;;;;;;;5.62;3.00;;;;;;;3.21;82.60;99561.72;2070913;83;21560;-71
2020/12/25 01:57:16;;;;;;;4.47;3.12;;;;;;;3.25;82.55;99565.27;2085947;84;21156;-73
2020/12/25 02:00:17;;;;;;;5.72;4.03;;;;;;;3.26;82.52;99563.47;2073518;84;21164;-70
2020/12/25 02:03:19;;;;;;;5.67;3.52;;;;;;;3.26;82.49;99566.91;2076905;83;21608;-73
2020/12/25 02:06:20;;;;;;;4.35;3.60;;;;;;;3.27;82.44;99566.45;2080207;84;21184;-67
2020/12/25 02:09:22;;;;;;;4.87;3.20;;;;;;;3.24;82.40;99568.86;2081024;84;21109;-67
2020/12/25 02:12:24;;;;;;;6.67;3.00;;;;;;;3.27;82.40;99571.70;2079809;83;21134;-67
2020/12/25 02:15:25;;;;;;;7.25;3.85;;;;;;;3.29;82.42;99582.87;2072309;84;21138;-68
2020/12/25 02:18:39;;;;;;;4.75;3.08;;;;;;;3.31;82.47;99587.50;2076875;83;21177;-68
2020/12/25 02:21:41;;;;;;;4.08;3.20;;;;;;;3.33;82.41;99590.34;2072052;83;21105;-67
2020/12/25 02:24:43;;;;;;;4.80;3.25;;;;;;;3.33;82.34;99589.52;2071481;84;21614;-74
2020/12/25 02:27:46;;;;;;;3.02;2.70;;;;;;;3.32;82.29;99582.59;2075533;84;21149;-68
2020/12/25 02:30:47;;;;;;;3.00;2.60;;;;;;;3.28;82.32;99579.91;2073325;84;21157;-67
2020/12/25 02:33:51;;;;;;;4.42;3.25;;;;;;;3.29;82.41;99589.42;2073933;84;21182;-67
2020/12/25 02:36:53;;;;;;;3.58;2.90;;;;;;;3.29;82.53;99587.63;2072674;84;21295;-68
2020/12/25 02:39:54;;;;;;;4.53;3.40;;;;;;;3.32;82.50;99594.39;2068804;84;21731;-68
2020/12/25 02:42:56;;;;;;;4.35;3.47;;;;;;;3.32;82.50;99590.47;2078891;84;21165;-67
2020/12/25 02:46:01;;;;;;;5.33;3.25;;;;;;;3.31;82.57;99592.27;2082519;84;21663;-68
2020/12/25 02:49:08;;;;;;;6.53;3.80;;;;;;;3.31;82.62;99597.99;2083039;84;21132;-67
2020/12/25 02:52:09;;;;;;;5.03;3.70;;;;;;;3.29;82.76;99603.84;2080388;84;21584;-67
2020/12/25 02:55:13;;;;;;;6.78;3.87;;;;;;;3.27;82.86;99597.92;2080838;84;21204;-73
2020/12/25 02:58:14;;;;;;;5.33;4.05;;;;;;;3.23;82.97;99589.95;2082065;84;21706;-74
2020/12/25 03:01:18;;;;;;;5.08;4.10;;;;;;;3.24;83.08;99596.85;2080079;83;21199;-68
2020/12/25 03:04:23;;;;;;;6.50;4.85;;;;;;;3.24;83.16;99599.47;2080359;84;21157;-67
2020/12/25 03:07:26;;;;;;;8.65;4.58;;;;;;;3.25;83.26;99597.22;2084890;84;21211;-69
2020/12/25 03:10:29;;;;;;;8.95;5.15;;;;;;;3.26;83.34;99605.42;2084163;84;21125;-69
2020/12/25 03:13:36;;;;;;;5.33;4.50;;;;;;;3.28;83.37;99606.13;2078971;84;21595;-67
2020/12/25 03:16:38;;;;;;;5.58;4.70;;;;;;;3.28;83.53;99599.58;2081555;84;21211;-67
2020/12/25 03:19:42;;;;;;;6.15;4.35;;;;;;;3.25;83.55;99616.39;2083730;84;21635;-68
2020/12/25 03:22:44;;;;;;;5.87;3.85;;;;;;;3.23;83.73;99616.18;2081390;84;21100;-68
2020/12/25 03:25:46;;;;;;;4.60;3.08;;;;;;;3.18;83.75;99607.88;2085610;84;21133;-67
2020/12/25 03:28:50;;;;;;;4.83;3.20;;;;;;;3.13;83.86;99620.91;2082032;84;21186;-67
2020/12/25 03:31:52;;;;;;;4.22;3.40;;;;;;;3.09;83.94;99616.88;2081128;83;22080;-67
2020/12/25 03:34:54;;;;;;;7.58;4.40;;;;;;;3.07;84.00;99611.41;2081852;84;21148;-67
2020/12/25 03:37:58;;;;;;;6.10;4.42;;;;;;;3.04;83.79;99613.84;2077678;84;21129;-68
2020/12/25 03:41:05;;;;;;;5.95;4.67;;;;;;;3.03;83.79;99616.09;2082671;84;21191;-69
2020/12/25 03:44:06;;;;;;;8.50;4.80;;;;;;;3.01;83.84;99619.80;2087202;84;21187;-69
2020/12/25 03:47:08;;;;;;;8.85;4.80;;;;;;;2.97;83.88;99620.55;2081543;84;21181;-69
2020/12/25 03:50:09;;;;;;;7.30;4.83;;;;;;;2.95;83.96;99617.70;2081419;84;21188;-70
2020/12/25 03:53:11;;;;;;;8.53;5.12;;;;;;;2.96;83.95;99619.35;2075800;84;21516;-73
2020/12/25 03:56:16;;;;;;;10.68;5.15;;;;;;;2.96;83.97;99617.59;2081889;84;21147;-68
2020/12/25 03:59:20;;;;;;;6.55;5.05;;;;;;;2.97;83.99;99629.72;2080989;84;21164;-71
2020/12/25 04:02:21;;;;;;;12.15;5.40;;;;;;;2.99;84.07;99634.36;2079256;84;21508;-68
2020/12/25 04:05:23;;;;;;;9.00;5.47;;;;;;;3.00;84.08;99638.62;2087017;83;21116;-68
2020/12/25 04:08:24;;;;;;;10.53;5.83;;;;;;;3.01;84.17;99650.77;2078892;84;21140;-69
2020/12/25 04:11:26;;;;;;;8.08;5.22;;;;;;;3.00;84.17;99653.53;2087728;84;21136;-69
2020/12/25 04:14:27;;;;;;;6.97;4.55;;;;;;;2.97;84.16;99653.31;2078833;84;21559;-69
2020/12/25 04:17:29;;;;;;;10.48;4.42;;;;;;;2.97;84.22;99656.41;2082838;84;21181;-70
2020/12/25 04:20:31;;;;;;;6.40;4.12;;;;;;;2.99;84.18;99657.13;2085346;84;21187;-68
2020/12/25 04:23:35;;;;;;;8.13;5.15;;;;;;;2.98;84.21;99660.20;2080404;84;21129;-68
2020/12/25 04:26:37;;;;;;;6.83;4.62;;;;;;;2.97;84.21;99652.00;2087361;83;22200;-68
2020/12/25 04:29:38;;;;;;;6.15;4.08;;;;;;;2.97;84.30;99652.48;2078606;84;21345;-75
2020/12/25 04:32:40;;;;;;;5.47;3.67;;;;;;;2.96;84.32;99656.05;2082851;84;21183;-68
2020/12/25 04:35:42;;;;;;;6.67;4.10;;;;;;;2.95;84.30;99654.39;2075872;83;21897;-68
2020/12/25 04:38:45;;;;;;;5.67;3.83;;;;;;;2.90;84.30;99656.08;2081897;84;21093;-68
2020/12/25 04:41:47;;;;;;;5.75;3.87;;;;;;;2.89;84.24;99659.67;2087565;84;21211;-70
2020/12/25 04:44:49;;;;;;;6.45;3.85;;;;;;;2.87;84.26;99661.58;2066360;84;21270;-70
2020/12/25 04:47:52;;;;;;;5.35;3.80;;;;;;;2.87;84.25;99668.13;2071044;84;21205;-68
2020/12/25 04:50:54;;;;;;;5.85;3.98;;;;;;;2.87;84.26;99665.52;2070956;84;21077;-69
2020/12/25 04:53:57;;;;;;;4.47;3.70;;;;;;;2.90;84.35;99669.19;2071295;85;21642;-68
2020/12/25 04:57:00;;;;;;;6.47;4.15;;;;;;;2.89;84.36;99676.22;2067561;84;21184;-69
2020/12/25 05:00:10;;;;;;;4.75;4.00;;;;;;;2.89;84.44;99673.60;2070211;84;21148;-75
2020/12/25 05:03:12;;;;;;;6.80;4.47;;;;;;;2.86;84.51;99671.73;2059602;85;21721;-68
2020/12/25 05:06:20;;;;;;;9.18;5.10;;;;;;;2.85;84.59;99679.25;2072893;84;21166;-68
2020/12/25 05:09:26;;;;;;;6.97;4.60;;;;;;;2.85;84.69;99687.94;2070124;85;21211;-69
2020/12/25 05:12:28;;;;;;;5.35;4.15;;;;;;;2.86;84.77;99683.52;2070413;84;21165;-69
2020/12/25 05:15:30;;;;;;;6.95;4.20;;;;;;;2.91;84.78;99689.21;2070083;84;21114;-71
2020/12/25 05:18:41;;;;;;;5.28;4.58;;;;;;;2.94;84.77;99684.20;2069681;85;21584;-69
2020/12/25 05:21:44;;;;;;;6.28;4.97;;;;;;;2.97;84.80;99692.62;2071174;84;21200;-68
2020/12/25 05:24:46;;;;;;;6.50;5.08;;;;;;;2.98;84.87;99692.97;2070617;84;21127;-73
2020/12/25 05:27:54;;;;;;;5.78;4.90;;;;;;;2.97;84.97;99699.17;2069857;84;21097;-69
2020/12/25 05:30:59;;;;;;;6.50;4.78;;;;;;;2.96;84.93;99696.22;2074698;84;21644;-74
2020/12/25 05:34:06;;;;;;;7.20;4.65;;;;;;;2.94;84.95;99703.36;2074309;85;21173;-67
2020/12/25 05:37:08;;;;;;;6.78;4.33;;;;;;;2.93;85.01;99701.72;2066988;84;21195;-68
2020/12/25 05:40:11;;;;;;;3.95;3.30;;;;;;;2.92;85.19;99707.90;2071738;84;21223;-67
2020/12/25 05:43:19;;;;;;;4.78;4.00;;;;;;;2.89;85.08;99714.70;2048665;84;21152;-68
2020/12/25 05:46:20;;;;;;;4.00;3.22;;;;;;;2.85;85.24;99711.52;2024707;86;21270;-68
2020/12/25 05:49:22;;;;;;;5.10;4.17;;;;;;;2.83;85.17;99721.28;2025410;86;21549;-74
2020/12/25 05:52:26;;;;;;;5.00;3.50;;;;;;;2.83;85.22;99723.08;2004261;86;21233;-68
2020/12/25 05:55:30;;;;;;;5.75;3.55;;;;;;;2.81;85.13;99724.98;2022584;86;21513;-68
2020/12/25 05:58:34;;;;;;;4.45;3.37;;;;;;;2.81;85.22;99721.05;2024996;86;21148;-69
2020/12/25 06:01:35;;;;;;;3.55;3.25;;;;;;;2.78;85.10;99725.24;2007487;86;21613;-68
2020/12/25 06:04:37;;;;;;;3.60;3.05;;;;;;;2.78;85.06;99723.94;2026410;86;21217;-67
2020/12/25 06:07:50;;;;;;;6.92;3.40;;;;;;;2.80;85.10;99733.81;2028820;86;21185;-75
2020/12/25 06:10:55;;;;;;;4.92;3.75;;;;;;;2.78;85.06;99731.80;2029317;86;21204;-68
2020/12/25 06:14:01;;;;;;;4.70;3.62;;;;;;;2.81;85.12;99739.40;2025581;86;21622;-69
2020/12/25 06:17:07;;;;;;;4.12;3.65;;;;;;;2.78;85.07;99740.48;2024685;85;21176;-68
2020/12/25 06:20:14;;;;;;;3.47;3.17;;;;;;;2.77;85.10;99742.76;2023760;86;21649;-69
2020/12/25 06:23:20;;;;;;;3.87;3.50;;;;;;;2.76;85.22;99742.42;2024522;85;21169;-70
2020/12/25 06:26:25;;;;;;;4.53;3.70;;;;;;;2.77;85.28;99753.23;2006705;87;21153;-68
2020/12/25 06:29:29;;;;;;;3.75;3.33;;;;;;;2.80;85.27;99754.78;2033340;86;21210;-71
2020/12/25 06:32:35;;;;;;;3.42;3.12;;;;;;;2.83;85.25;99755.84;2008607;87;21231;-69
2020/12/25 06:35:45;;;;;;;3.50;3.20;;;;;;;2.86;85.27;99755.09;2025444;86;21193;-70
2020/12/25 06:38:46;;;;;;;3.50;3.20;;;;;;;2.90;85.24;99764.84;2027084;86;21195;-68
2020/12/25 06:41:48;;;;;;;7.25;4.12;;;;;;;2.92;85.27;99777.34;2028312;86;21196;-69
2020/12/25 06:44:50;;;;;;;6.00;4.37;;;;;;;2.94;85.32;99772.82;2070806;84;21652;-74
2020/12/25 06:47:51;;;;;;;6.87;5.05;;;;;;;2.95;85.31;99786.27;2067825;85;21216;-68
2020/12/25 06:50:56;;;;;;;6.25;4.85;;;;;;;2.90;85.23;99783.19;2070101;84;21192;-68
2020/12/25 06:53:58;;;;;;;4.45;3.72;;;;;;;2.91;85.27;99786.17;2071400;84;21600;-68
2020/12/25 06:57:00;;;;;;;5.90;4.42;;;;;;;2.94;85.33;99796.89;2047458;85;21119;-68
2020/12/25 07:00:05;;;;;;;7.90;4.65;;;;;;;2.95;85.37;99805.92;2051153;84;21632;-70
2020/12/25 07:03:14;;;;;;;5.97;4.40;;;;;;;2.97;85.34;99810.57;2067067;84;21236;-75
2020/12/25 07:06:17;;;;;;;7.55;5.67;;;;;;;2.94;85.35;99818.69;2067131;84;21161;-68
2020/12/25 07:09:20;;;;;;;7.43;6.20;;;;;;;2.95;85.36;99819.03;2068955;84;21239;-69
2020/12/25 07:12:24;;;;;;;9.63;6.85;;;;;;;2.96;85.42;99827.27;2064448;85;22367;-70
2020/12/25 07:15:25;;;;;;;8.25;6.70;;;;;;;2.98;85.46;99829.26;2068083;84;21179;-69
2020/12/25 07:18:27;;;;;;;7.60;6.83;;;;;;;2.96;85.42;99835.13;2072828;84;21211;-67
2020/12/25 07:21:29;;;;;;;8.88;6.92;;;;;;;2.94;85.39;99829.17;2069512;85;21140;-68
2020/12/25 07:24:31;;;;;;;11.68;7.22;;;;;;;2.93;85.45;99832.76;2072411;84;21141;-73
2020/12/25 07:27:33;;;;;;;8.65;6.67;;;;;;;2.95;85.49;99840.48;2071600;84;21129;-69
2020/12/25 07:30:35;;;;;;;9.68;7.42;;;;;;;2.97;85.52;99845.12;2068368;83;21113;-69
2020/12/25 07:33:37;;;;;;;9.38;7.15;;;;;;;3.02;85.50;99852.14;2068323;84;21152;-68
2020/12/25 07:36:38;;;;;;;9.35;6.55;;;;;;;3.07;85.58;99856.05;2067767;85;21093;-68
2020/12/25 07:39:40;;;;;;;8.53;7.22;;;;;;;3.08;85.47;99863.44;2071883;84;21134;-69
2020/12/25 07:42:41;;;;;;;10.40;7.65;;;;;;;3.04;85.31;99862.86;2069734;84;21219;-70
2020/12/25 07:45:43;;;;;;;10.00;8.23;;;;;;;3.00;85.30;99860.12;2063172;84;21342;-75
2020/12/25 07:48:45;;;;;;;13.00;10.00;;;;;;;2.97;85.33;99861.68;2064156;84;21184;-67
2020/12/25 07:51:50;;;;;;;16.82;10.25;;;;;;;2.94;85.29;99864.55;2064104;85;21180;-68
2020/12/25 07:54:52;;;;;;;12.23;9.43;;;;;;;2.93;85.28;99870.76;2066772;84;21168;-71
2020/12/25 07:57:54;;;;;;;8.80;7.05;;;;;;;2.91;85.24;99864.31;2066307;84;21177;-70
2020/12/25 08:00:55;;;;;;;10.40;7.33;;;;;;;2.95;85.29;99871.93;2065922;84;21074;-68
2020/12/25 08:03:58;;;;;;;9.68;7.62;;;;;;;2.94;85.21;99867.17;2062971;84;21246;-68
2020/12/25 08:07:00;;;;;;;11.80;8.75;;;;;;;2.96;85.14;99881.00;2064369;84;21149;-71
2020/12/25 08:10:02;;;;;;;13.62;8.75;;;;;;;2.94;85.03;99880.77;2062935;84;21121;-77
2020/12/25 08:13:07;;;;;;;11.03;7.25;;;;;;;2.94;85.01;99888.63;2047280;85;21339;-75
2020/12/25 08:16:10;;;;;;;8.73;7.47;;;;;;;2.95;85.03;99890.28;2046846;85;21157;-70
2020/12/25 08:19:11;;;;;;;8.58;6.47;;;;;;;2.99;85.00;99895.64;2066562;84;21176;-71
2020/12/25 08:22:13;;;;;;;11.48;6.30;;;;;;;2.98;84.81;99897.89;2067167;85;21218;-71
2020/12/25 08:25:15;;;;;;;14.60;7.55;;;;;;;2.99;84.76;99899.58;2063526;85;21614;-71
2020/12/25 08:28:17;;;;;;;11.08;8.13;;;;;;;2.98;84.74;99906.58;2066527;84;21121;-73
2020/12/25 08:31:19;;;;;;;10.90;8.45;;;;;;;3.00;84.73;99909.92;2064794;85;21259;-75
2020/12/25 08:34:25;;;;;;;9.93;7.65;;;;;;;3.00;84.71;99911.23;2064348;84;21208;-72
2020/12/25 08:37:26;;;;;;;16.77;9.60;;;;;;;2.99;84.62;99913.52;2067810;84;21250;-70
2020/12/25 08:40:34;;;;;;;12.18;7.33;;;;;;;3.00;84.55;99919.58;2125441;82;21191;-71
2020/12/25 08:43:36;;;;;;;12.88;7.90;;;;;;;3.01;84.53;99929.09;2128463;82;21129;-72
2020/12/25 08:46:39;;;;;;;14.47;8.10;;;;;;;3.02;84.49;99929.47;2131022;82;21117;-75
2020/12/25 08:49:40;;;;;;;15.98;6.50;;;;;;;3.04;84.52;99936.71;2131495;82;21073;-70
2020/12/25 08:52:42;;;;;;;10.30;6.65;;;;;;;3.03;84.43;99939.81;2129293;82;21184;-70
2020/12/25 08:55:50;;;;;;;12.07;8.08;;;;;;;3.03;84.34;99950.30;2124239;82;21180;-72
2020/12/25 08:59:02;;;;;;;12.00;7.35;;;;;;;3.03;84.14;99950.30;2132249;82;21670;-81
2020/12/25 09:02:03;;;;;;;12.55;8.78;;;;;;;3.03;84.19;99956.86;2123627;82;21204;-74
2020/12/25 09:05:05;;;;;;;11.68;7.53;;;;;;;3.05;84.19;99959.38;2126332;82;21200;-71
2020/12/25 09:08:06;;;;;;;11.22;7.35;;;;;;;3.07;84.25;99963.54;2131564;82;21515;-70
2020/12/25 09:11:16;;;;;;;8.70;6.20;;;;;;;3.08;84.01;99969.13;2131373;82;21179;-70
2020/12/25 09:14:18;;;;;;;9.70;5.27;;;;;;;3.02;83.78;99972.24;2132633;82;21116;-85
2020/12/25 09:17:21;;;;;;;6.45;5.00;;;;;;;2.96;83.91;99977.98;2129356;82;21129;-75
2020/12/25 09:20:23;;;;;;;6.10;4.25;;;;;;;2.96;84.10;99980.59;2127472;81;21556;-84
2020/12/25 09:23:25;;;;;;;7.42;4.15;;;;;;;3.01;84.11;99978.91;2134604;82;21138;-71
2020/12/25 09:26:26;;;;;;;7.30;4.50;;;;;;;3.03;84.04;99983.55;2126445;82;21568;-75
2020/12/25 09:29:28;;;;;;;7.83;5.30;;;;;;;3.05;84.07;99991.66;2128988;82;21140;-75
2020/12/25 09:32:29;;;;;;;6.87;5.72;;;;;;;3.04;83.76;99997.87;2129612;82;21207;-76
2020/12/25 09:35:31;;;;;;;7.72;5.80;;;;;;;3.01;83.86;99998.08;2132010;82;21140;-79
2020/12/25 09:38:33;;;;;;;6.95;5.08;;;;;;;2.99;83.80;99997.39;2129255;82;21073;-72
2020/12/25 09:41:35;;;;;;;7.15;4.35;;;;;;;2.96;83.63;99991.53;2127417;82;21527;-81
2020/12/25 09:44:36;;;;;;;7.58;4.15;;;;;;;2.90;83.45;99998.09;2128013;82;21549;-77
2020/12/25 09:47:38;;;;;;;6.92;3.92;;;;;;;2.86;83.19;99994.88;2122627;82;21620;-76
2020/12/25 09:50:42;;;;;;;6.05;3.95;;;;;;;2.85;83.41;99995.02;2117346;82;21128;-76
2020/12/25 09:53:43;;;;;;;9.58;4.28;;;;;;;2.84;83.36;99992.85;2116315;82;21073;-77
2020/12/25 09:56:45;;;;;;;8.88;4.33;;;;;;;2.83;83.36;99995.61;2115881;82;21217;-72
2020/12/25 09:59:46;;;;;;;8.93;4.20;;;;;;;2.82;83.43;99993.47;2116227;82;21154;-71
2020/12/25 10:02:48;;;;;;;9.55;4.53;;;;;;;2.82;83.32;99994.78;2116178;82;21216;-79
2020/12/25 10:05:50;;;;;;;12.40;6.25;;;;;;;2.85;83.42;99992.41;2115297;82;21205;-85
2020/12/25 10:08:51;;;;;;;11.15;6.30;;;;;;;2.92;83.51;99993.09;2118618;82;21186;-70
2020/12/25 10:11:54;;;;;;;14.03;7.92;;;;;;;2.97;83.34;99988.80;2119020;82;21125;-70
2020/12/25 10:14:56;;;;;;;11.10;6.03;;;;;;;3.00;83.36;99987.25;2115582;82;21573;-81
2020/12/25 10:17:57;;;;;;;6.55;4.83;;;;;;;3.03;83.40;99990.11;2123158;82;21108;-72
2020/12/25 10:20:59;;;;;;;8.53;5.42;;;;;;;3.03;82.93;99986.17;2117084;82;21160;-73
2020/12/25 10:24:00;;;;;;;9.53;5.12;;;;;;;2.97;82.77;99983.56;2116927;82;21134;-75
2020/12/25 10:27:02;;;;;;;8.98;4.37;;;;;;;2.93;82.38;99983.46;2115692;82;21137;-75
2020/12/25 10:30:03;;;;;;;6.85;4.28;;;;;;;2.89;82.56;99985.95;2113895;82;21640;-80
2020/12/25 10:33:05;;;;;;;7.28;4.33;;;;;;;2.88;82.68;99994.78;2116006;82;21087;-69
2020/12/25 10:36:07;;;;;;;6.90;4.78;;;;;;;2.89;82.88;99992.50;2114278;82;21545;-71
2020/12/25 10:39:10;;;;;;;8.25;4.25;;;;;;;2.90;82.90;99992.39;2114721;82;21177;-70
2020/12/25 10:42:14;;;;;;;6.42;3.58;;;;;;;2.86;82.21;99989.64;2098425;82;21172;-71
2020/12/25 10:45:15;;;;;;;11.35;6.30;;;;;;;2.84;82.52;99999.41;2107282;82;21213;-72
2020/12/25 10:48:17;;;;;;;6.53;3.92;;;;;;;2.86;82.60;99999.30;2108322;83;21187;-70
2020/12/25 10:51:19;;;;;;;8.65;4.33;;;;;;;2.82;82.22;100002.64;2102666;83;21164;-70
2020/12/25 10:54:20;;;;;;;8.78;4.67;;;;;;;2.80;82.40;99997.99;2100879;83;21197;-85
2020/12/25 10:57:22;;;;;;;6.58;4.25;;;;;;;2.81;82.49;100008.82;2102594;81;21294;-70
2020/12/25 11:00:23;;;;;;;7.03;3.87;;;;;;;2.87;82.37;100011.44;2101693;83;21124;-70
2020/12/25 11:03:25;;;;;;;13.50;6.17;;;;;;;2.84;81.80;100015.12;2100562;83;21204;-80
2020/12/25 11:06:35;;;;;;;9.90;5.03;;;;;;;2.84;82.31;100021.68;2100956;83;21161;-74
2020/12/25 11:09:36;;;;;;;5.78;3.95;;;;;;;2.83;81.93;100025.75;2097613;83;21104;-88
2020/12/25 11:12:38;;;;;;;12.70;5.47;;;;;;;2.79;81.85;100017.75;2103378;83;21119;-70
2020/12/25 11:15:40;;;;;;;6.53;3.27;;;;;;;2.78;82.30;100021.34;2099596;83;21553;-80
2020/12/25 11:18:42;;;;;;;14.35;6.95;;;;;;;2.83;82.35;100027.06;2102872;82;21131;-71
2020/12/25 11:21:43;;;;;;;11.30;6.00;;;;;;;2.85;82.40;100028.61;2104639;81;21917;-72
2020/12/25 11:24:45;;;;;;;8.58;4.62;;;;;;;2.86;82.13;100035.50;2101618;83;21221;-70
2020/12/25 11:27:46;;;;;;;8.75;5.40;;;;;;;2.83;82.00;100031.81;2103334;83;21176;-73
2020/12/25 11:30:48;;;;;;;18.73;7.55;;;;;;;2.81;82.24;100031.09;2099499;83;21170;-69
2020/12/25 11:33:50;;;;;;;14.33;6.17;;;;;;;2.81;82.37;100028.47;2098266;83;21184;-72
2020/12/25 11:36:52;;;;;;;11.40;6.70;;;;;;;2.78;82.14;100038.37;2102404;82;21187;-82
2020/12/25 11:39:53;;;;;;;6.78;4.85;;;;;;;2.77;82.14;100041.95;2103143;83;21488;-85
2020/12/25 11:42:56;;;;;;;7.12;4.45;;;;;;;2.75;81.73;100041.23;2100274;81;21156;-72
2020/12/25 11:45:59;;;;;;;8.75;5.25;;;;;;;2.71;81.61;100038.50;2093975;83;21578;-71
2020/12/25 11:49:06;;;;;;;8.10;5.45;;;;;;;2.69;81.88;100044.67;2094769;83;21148;-70
2020/12/25 11:52:06;;;;;;;7.87;6.17;;;;;;;2.68;81.88;100044.33;2092637;83;21530;-71
2020/12/25 11:55:08;;;;;;;6.92;5.17;;;;;;;2.65;81.88;100049.80;2093365;83;21536;-71
2020/12/25 11:58:10;;;;;;;11.00;6.40;;;;;;;2.61;81.79;100040.98;2095096;83;21500;-74
2020/12/25 12:01:11;;;;;;;10.05;6.67;;;;;;;2.61;81.96;100050.14;2093624;83;21172;-73
2020/12/25 12:04:13;;;;;;;13.95;6.97;;;;;;;2.65;82.10;100047.66;2092669;83;21507;-72
2020/12/25 12:07:14;;;;;;;12.05;7.55;;;;;;;2.66;82.06;100055.39;2094231;83;21588;-72
2020/12/25 12:10:16;;;;;;;16.90;8.48;;;;;;;2.67;81.88;100046.56;2094116;83;21129;-73
2020/12/25 12:13:17;;;;;;;13.53;8.43;;;;;;;2.65;81.82;100053.73;2093003;83;21175;-78
2020/12/25 12:16:23;;;;;;;12.73;7.45;;;;;;;2.64;81.72;100052.53;2063691;83;21734;-84
2020/12/25 12:19:25;;;;;;;9.15;5.87;;;;;;;2.62;81.64;100056.59;2091909;83;21190;-86
2020/12/25 12:22:26;;;;;;;8.20;4.92;;;;;;;2.59;81.41;100060.76;2093105;83;21507;-76
2020/12/25 12:25:28;;;;;;;9.08;4.90;;;;;;;2.58;81.45;100061.69;2095502;84;21117;-76
2020/12/25 12:28:30;;;;;;;8.10;5.40;;;;;;;2.60;81.36;100062.41;2089325;83;21576;-79
2020/12/25 12:31:37;;;;;;;7.33;4.95;;;;;;;2.62;81.44;100059.21;2092528;83;21463;-73
2020/12/25 12:34:39;;;;;;;9.78;5.75;;;;;;;2.60;81.17;100067.66;2091204;84;21116;-73
2020/12/25 12:37:44;;;;;;;9.88;6.12;;;;;;;2.59;81.21;100062.52;2093798;83;21133;-77
2020/12/25 12:40:46;;;;;;;6.42;4.67;;;;;;;2.55;80.94;100060.61;2090887;83;21240;-76
2020/12/25 12:43:47;;;;;;;6.03;4.67;;;;;;;2.54;80.69;100068.13;2094178;83;21192;-71
2020/12/25 12:46:56;;;;;;;10.75;5.37;;;;;;;2.53;80.90;100078.22;2079664;83;21571;-72
2020/12/25 12:49:58;;;;;;;6.55;4.50;;;;;;;2.52;80.81;100070.02;2111449;83;21140;-73
2020/12/25 12:52:59;;;;;;;5.53;4.65;;;;;;;2.51;80.70;100070.98;2106352;83;21120;-73
2020/12/25 12:56:00;;;;;;;8.28;6.00;;;;;;;2.52;80.73;100071.33;2103531;83;21520;-73
2020/12/25 12:59:02;;;;;;;9.75;5.87;;;;;;;2.52;81.04;100071.33;2100989;83;21155;-76
2020/12/25 13:02:04;;;;;;;7.28;5.05;;;;;;;2.52;81.03;100071.33;2101385;82;21152;-73
2020/12/25 13:05:05;;;;;;;7.72;5.00;;;;;;;2.49;80.83;100080.73;2098066;82;21131;-78
2020/12/25 13:08:07;;;;;;;6.78;3.98;;;;;;;2.46;80.98;100080.48;2099529;83;21216;-72
2020/12/25 13:11:08;;;;;;;7.28;5.28;;;;;;;2.50;81.11;100087.63;2102744;82;21536;-73
2020/12/25 13:14:10;;;;;;;8.43;5.22;;;;;;;2.53;81.13;100089.18;2104673;83;21135;-78
2020/12/25 13:17:12;;;;;;;9.38;6.60;;;;;;;2.55;81.12;100100.39;2097221;83;21193;-75
2020/12/25 13:20:13;;;;;;;9.58;7.15;;;;;;;2.51;80.83;100091.94;2102841;83;21582;-72
2020/12/25 13:23:15;;;;;;;10.82;7.58;;;;;;;2.47;80.96;100094.41;2104230;83;21122;-72
2020/12/25 13:26:17;;;;;;;11.55;6.92;;;;;;;2.46;81.15;100091.44;2096029;82;21144;-71
2020/12/25 13:29:19;;;;;;;11.20;6.35;;;;;;;2.43;81.10;100093.81;2100881;81;21176;-73
2020/12/25 13:32:20;;;;;;;9.40;5.90;;;;;;;2.43;81.15;100087.75;2100092;83;21205;-76
2020/12/25 13:35:22;;;;;;;10.98;6.80;;;;;;;2.43;81.21;100099.05;2102776;83;21816;-79
2020/12/25 13:38:23;;;;;;;9.55;6.78;;;;;;;2.44;81.21;100098.57;2103010;83;21117;-72
2020/12/25 13:41:25;;;;;;;11.63;6.25;;;;;;;2.43;81.10;100097.73;2102095;81;21139;-72
2020/12/25 13:44:27;;;;;;;9.88;5.92;;;;;;;2.42;81.05;100101.77;2107497;82;21205;-75
2020/12/25 13:47:29;;;;;;;7.55;3.80;;;;;;;2.36;80.83;100095.69;2114938;82;21164;-74
2020/12/25 13:50:30;;;;;;;5.62;3.58;;;;;;;2.30;80.57;100102.22;2097471;82;21162;-80
2020/12/25 13:53:32;;;;;;;5.70;4.00;;;;;;;2.25;80.33;100099.09;2113701;82;21091;-72
2020/12/25 13:56:35;;;;;;;6.65;3.87;;;;;;;2.23;80.50;100106.25;2109896;82;21137;-74
2020/12/25 13:59:36;;;;;;;6.22;3.60;;;;;;;2.20;80.16;100109.10;2113993;82;21132;-72
2020/12/25 14:02:38;;;;;;;6.35;3.83;;;;;;;2.17;80.31;100112.78;2095517;83;21517;-73
2020/12/25 14:05:40;;;;;;;6.15;4.00;;;;;;;2.13;80.03;100115.73;2108862;82;21103;-83
2020/12/25 14:08:42;;;;;;;5.17;3.55;;;;;;;2.11;80.23;100125.02;2116353;82;21736;-71
2020/12/25 14:11:43;;;;;;;6.60;3.37;;;;;;;2.08;79.96;100131.75;2115094;82;21138;-72
2020/12/25 14:14:45;;;;;;;5.15;3.83;;;;;;;2.08;80.17;100137.47;2093934;82;21141;-72
2020/12/25 14:17:46;;;;;;;6.97;4.17;;;;;;;2.06;80.18;100141.52;2114236;82;21461;-70
2020/12/25 14:20:50;;;;;;;7.70;4.58;;;;;;;2.05;80.23;100142.45;2118044;82;21157;-71
2020/12/25 14:23:51;;;;;;;8.45;4.70;;;;;;;1.99;80.08;100141.11;2091983;82;22322;-82
2020/12/25 14:26:53;;;;;;;7.70;4.25;;;;;;;1.96;80.25;100146.58;2117309;82;21110;-73